Iron Mountain, MI

8:35 AM CST on February 08, 2016 (GMT -0600)
Timberstone | | Change Station
CLOSE
Current Station
Personal Weather Station
Location: Iron Mountain, MI
Elevation: 1158 ft
Nearby Weather Stations

Elev 1158 ft 45.84 °N, 88.08 °W | Updated 3 minutes ago

Light Snow
Light Snow Mist
28.6 °F
Feels Like 29 °F
N
1.7
Wind Variable Wind from West

Today
High -- | Low -- °F
--% Chance of Precip.
Yesterday
High -- | Low -- °F
Precip. -- in
Pressure 29.58 in
Visibility 1.0 miles
Clouds Mostly Cloudy 1000 ft
Mostly Cloudy 1800 ft
Overcast 2300 ft
Windchill 29 °F
Dew Point 26 °F
Humidity 88%
Rainfall 0.00 in
Snow Depth Not available.
7:05 AM 5:07 PM
Waning Crescent, 0% visible
SPECI KIMT 081409Z AUTO 33013KT 1SM -SN BR BKN010 BKN018 OVC023 M02/M04 A2958 RMK AO2 P0000 T10221044 TSNO
Pressure 29.58 in
Visibility 1.0 miles
Clouds Mostly Cloudy 1000 ft
Mostly Cloudy 1800 ft
Overcast 2300 ft
Windchill 29 °F
Dew Point 26 °F
Humidity 88%
Rainfall 0.00 in
Snow Depth Not available.
7:05 AM 5:07 PM
Waning Crescent, 0% visible
SPECI KIMT 081409Z AUTO 33013KT 1SM -SN BR BKN010 BKN018 OVC023 M02/M04 A2958 RMK AO2 P0000 T10221044 TSNO

10-Day Weather Forecast

Almanac

Astronomy

Feb. 08, 2016 Rise Set
Actual Time
Civil Twilight
Nautical Twilight
Astronomical Twilight
Moon
Length of Visible Light
Length of Day
Tomorrow will be .
, % of the Moon is Illuminated

Today's Extremes

State Highs State Lows

Community

WunderPhotos

Upload Photos

1,891,437 photos uploaded!

WunderBlog® & News

Nearby

Air Quality

  Air Quality AQ Index Pollutant
Not available.

Snow Depth

Station Depth Elevation

Earthquake Activity

City Distance Mag. Time & Date
Minimum magnitude displayed is 2.5.

Coastal Water Temperatures

Place Temperature

Stations

Nearby Weather Stations

Station Location Temp. Windchill Dew Point Humidity Wind Precip. Elev Updated Type
                   

Watches & Warnings

There are currently no watches in effect.